CST,Max TemperatureF,Mean TemperatureF,Min TemperatureF,Max Dew PointF,MeanDew PointF,Min DewpointF,Max Humidity, Mean Humidity, Min Humidity, Max Sea Level PressureIn, Mean Sea Level PressureIn, Min Sea Level PressureIn, Max VisibilityMiles, Mean VisibilityMiles, Min VisibilityMiles, Max Wind SpeedMPH, Mean Wind SpeedMPH, Max Gust SpeedMPH,PrecipitationIn, CloudCover, Events, WindDirDegrees
2012-11-1,86,64,42,54,41,37,81,50,18,30.10,30.04,29.97,10,10,8,13,2,20,0.00,0,,189
2012-11-2,86,66,46,57,48,39,87,55,22,30.04,29.98,29.91,10,10,7,15,5,22,0.00,0,,175
2012-11-3,82,66,50,61,54,48,94,66,39,30.12,30.05,29.98,10,10,5,9,4,,0.00,0,Rain,36
2012-11-4,75,62,50,48,44,41,76,53,34,30.19,30.12,30.08,10,10,8,10,5,,0.00,0,,349
2012-11-5,77,60,44,52,41,32,87,57,22,30.14,30.09,30.05,10,10,2,15,3,21,0.00,0,,360
2012-11-6,78,58,37,39,36,32,81,51,21,30.20,30.14,30.09,10,10,6,12,2,18,0.00,0,,245
2012-11-7,80,60,39,43,38,32,93,48,21,30.21,30.13,30.05,10,10,7,14,4,16,0.00,0,,151
2012-11-8,84,66,48,55,49,41,77,53,35,30.09,30.02,29.95,10,10,5,20,8,26,0.00,0,,165
2012-11-9,82,71,60,59,56,52,88,62,35,30.04,29.98,29.91,10,10,7,22,12,33,0.00,0,,171
2012-11-10,80,71,62,61,57,52,88,62,37,29.98,29.89,29.80,10,10,8,30,17,39,0.00,4,,169
2012-11-11,71,58,44,63,39,16,83,44,17,30.29,29.98,29.77,10,10,5,21,15,29,0.00,6,Rain,297
2012-11-12,57,44,30,37,22,14,87,50,20,30.52,30.44,30.30,10,10,10,12,6,18,0.00,0,Snow,18
2012-11-13,55,40,26,23,18,14,74,46,21,30.50,30.41,30.30,10,10,9,16,3,20,0.00,4,,145
2012-11-14,62,43,24,27,21,18,80,47,18,30.43,30.34,30.27,10,10,8,9,1,,0.00,0,,174
2012-11-15,66,49,32,45,33,21,71,56,39,30.31,30.26,30.19,10,10,5,13,3,17,0.00,5,,157
2012-11-16,66,52,37,39,34,25,87,54,32,30.40,30.34,30.29,10,10,8,10,2,,0.00,3,,96
2012-11-17,68,50,32,28,25,23,75,45,18,30.39,30.31,30.25,10,10,10,13,3,,0.00,1,,143
2012-11-18,69,60,50,48,40,28,63,50,35,30.27,30.22,30.16,10,10,10,16,9,25,0.00,3,,159
2012-11-19,77,66,55,55,52,46,82,65,44,30.24,30.17,30.10,10,10,9,15,6,18,0.00,4,,177
2012-11-20,80,62,44,55,45,36,100,57,22,30.23,30.19,30.13,10,9,0,7,2,,0.00,0,Fog,171
2012-11-21,77,60,42,54,45,36,82,60,34,30.28,30.20,30.12,10,10,2,15,4,22,0.00,1,,160
2012-11-22,77,66,55,55,53,48,88,65,44,30.13,30.09,30.01,10,10,8,17,8,25,0.00,2,Rain,171
2012-11-23,64,55,46,54,30,16,94,42,15,30.45,30.34,30.13,10,10,10,21,9,33,0.00,4,,10
2012-11-24,64,45,26,27,20,14,75,39,15,30.44,30.29,30.09,10,10,1,13,4,17,0.00,1,,160
2012-11-25,78,56,35,50,38,25,77,48,28,30.08,29.96,29.85,10,10,10,20,7,25,0.00,0,,188
2012-11-26,77,59,41,55,42,28,100,61,20,30.30,30.03,29.90,10,8,0,20,7,28,0.00,1,Fog,348
2012-11-27,57,46,32,32,27,23,75,51,36,30.45,30.36,30.30,10,10,9,16,10,22,0.00,2,,346
2012-11-28,68,48,28,41,34,23,86,59,35,30.41,30.31,30.24,10,10,5,14,4,20,0.00,0,,152
2012-11-29,69,50,32,50,44,30,100,72,49,30.26,30.17,30.08,10,10,4,16,5,22,0.00,0,,172
2012-11-30,77,59,41,57,52,39,100,75,44,30.16,30.09,30.01,10,8,0,15,5,21,0.00,3,Fog,175